sensor_id;sensor_type;location;lat;lon;timestamp;P1;durP1;ratioP1;P2;durP2;ratioP2
70126;SDS011;57491;42.694;23.314;2023-04-24T00:00:01;10.02;;;6.30;;
70126;SDS011;57491;42.694;23.314;2023-04-24T00:02:37;11.77;;;6.75;;
70126;SDS011;57491;42.694;23.314;2023-04-24T00:05:05;9.73;;;7.20;;
70126;SDS011;57491;42.694;23.314;2023-04-24T00:07:35;9.65;;;6.47;;
70126;SDS011;57491;42.694;23.314;2023-04-24T00:10:05;12.23;;;7.13;;
70126;SDS011;57491;42.694;23.314;2023-04-24T00:12:33;11.02;;;6.38;;
70126;SDS011;57491;42.694;23.314;2023-04-24T00:15:03;9.50;;;6.32;;
70126;SDS011;57491;42.694;23.314;2023-04-24T00:17:32;9.23;;;5.90;;
70126;SDS011;57491;42.694;23.314;2023-04-24T00:20:01;11.60;;;6.38;;
70126;SDS011;57491;42.694;23.314;2023-04-24T00:22:30;8.60;;;5.95;;
70126;SDS011;57491;42.694;23.314;2023-04-24T00:24:58;6.82;;;5.38;;
70126;SDS011;57491;42.694;23.314;2023-04-24T00:27:26;6.63;;;5.00;;
70126;SDS011;57491;42.694;23.314;2023-04-24T00:29:54;7.57;;;4.70;;
70126;SDS011;57491;42.694;23.314;2023-04-24T00:32:22;7.53;;;4.80;;
70126;SDS011;57491;42.694;23.314;2023-04-24T00:34:52;6.63;;;5.20;;
70126;SDS011;57491;42.694;23.314;2023-04-24T00:37:24;10.02;;;4.60;;
70126;SDS011;57491;42.694;23.314;2023-04-24T00:39:58;7.18;;;4.75;;
70126;SDS011;57491;42.694;23.314;2023-04-24T00:42:28;11.05;;;5.10;;
70126;SDS011;57491;42.694;23.314;2023-04-24T00:44:58;7.03;;;5.22;;
70126;SDS011;57491;42.694;23.314;2023-04-24T00:47:28;7.85;;;4.60;;
70126;SDS011;57491;42.694;23.314;2023-04-24T00:49:57;15.82;;;4.65;;
70126;SDS011;57491;42.694;23.314;2023-04-24T00:54:57;8.63;;;4.65;;
70126;SDS011;57491;42.694;23.314;2023-04-24T00:57:24;6.93;;;4.75;;
70126;SDS011;57491;42.694;23.314;2023-04-24T00:59:53;7.72;;;5.00;;
70126;SDS011;57491;42.694;23.314;2023-04-24T01:02:23;6.30;;;5.20;;
70126;SDS011;57491;42.694;23.314;2023-04-24T01:04:52;5.78;;;4.50;;
70126;SDS011;57491;42.694;23.314;2023-04-24T01:07:20;5.22;;;4.45;;
70126;SDS011;57491;42.694;23.314;2023-04-24T01:09:50;6.88;;;4.70;;
70126;SDS011;57491;42.694;23.314;2023-04-24T01:12:17;10.68;;;5.40;;
70126;SDS011;57491;42.694;23.314;2023-04-24T01:14:45;7.63;;;5.07;;
70126;SDS011;57491;42.694;23.314;2023-04-24T01:19:41;7.57;;;5.25;;
70126;SDS011;57491;42.694;23.314;2023-04-24T01:22:12;7.18;;;4.90;;
70126;SDS011;57491;42.694;23.314;2023-04-24T01:24:40;5.38;;;4.75;;
70126;SDS011;57491;42.694;23.314;2023-04-24T01:27:08;8.40;;;4.72;;
70126;SDS011;57491;42.694;23.314;2023-04-24T01:29:37;7.05;;;5.07;;
70126;SDS011;57491;42.694;23.314;2023-04-24T01:32:05;10.75;;;5.65;;
70126;SDS011;57491;42.694;23.314;2023-04-24T01:34:34;8.75;;;5.20;;
70126;SDS011;57491;42.694;23.314;2023-04-24T01:37:01;11.50;;;5.50;;
70126;SDS011;57491;42.694;23.314;2023-04-24T01:39:32;8.85;;;4.75;;
70126;SDS011;57491;42.694;23.314;2023-04-24T01:42:00;10.30;;;5.47;;
70126;SDS011;57491;42.694;23.314;2023-04-24T01:44:27;10.18;;;5.85;;
70126;SDS011;57491;42.694;23.314;2023-04-24T01:46:55;9.20;;;4.85;;
70126;SDS011;57491;42.694;23.314;2023-04-24T01:49:22;10.85;;;6.60;;
70126;SDS011;57491;42.694;23.314;2023-04-24T01:51:50;7.18;;;5.78;;
70126;SDS011;57491;42.694;23.314;2023-04-24T01:54:18;7.90;;;5.25;;
70126;SDS011;57491;42.694;23.314;2023-04-24T01:56:50;8.25;;;5.68;;
70126;SDS011;57491;42.694;23.314;2023-04-24T01:59:18;7.55;;;5.78;;
70126;SDS011;57491;42.694;23.314;2023-04-24T02:01:48;13.85;;;6.80;;
70126;SDS011;57491;42.694;23.314;2023-04-24T02:04:16;6.50;;;4.82;;
70126;SDS011;57491;42.694;23.314;2023-04-24T02:06:43;8.10;;;6.18;;
70126;SDS011;57491;42.694;23.314;2023-04-24T02:09:11;8.20;;;5.85;;
70126;SDS011;57491;42.694;23.314;2023-04-24T02:11:39;12.98;;;5.78;;
70126;SDS011;57491;42.694;23.314;2023-04-24T02:14:08;8.70;;;5.78;;
70126;SDS011;57491;42.694;23.314;2023-04-24T02:16:36;9.63;;;5.25;;
70126;SDS011;57491;42.694;23.314;2023-04-24T02:19:03;7.97;;;5.93;;
70126;SDS011;57491;42.694;23.314;2023-04-24T02:21:31;7.00;;;5.40;;
70126;SDS011;57491;42.694;23.314;2023-04-24T02:23:59;10.20;;;6.15;;
70126;SDS011;57491;42.694;23.314;2023-04-24T02:26:27;8.23;;;5.90;;
70126;SDS011;57491;42.694;23.314;2023-04-24T02:28:57;8.18;;;6.22;;
70126;SDS011;57491;42.694;23.314;2023-04-24T02:31:26;7.85;;;5.28;;
70126;SDS011;57491;42.694;23.314;2023-04-24T02:33:54;10.10;;;5.70;;
70126;SDS011;57491;42.694;23.314;2023-04-24T02:36:21;9.85;;;6.00;;
70126;SDS011;57491;42.694;23.314;2023-04-24T02:38:49;9.07;;;6.00;;
70126;SDS011;57491;42.694;23.314;2023-04-24T02:41:17;12.05;;;6.50;;
70126;SDS011;57491;42.694;23.314;2023-04-24T02:46:12;7.18;;;5.82;;
70126;SDS011;57491;42.694;23.314;2023-04-24T02:48:41;8.80;;;6.20;;
70126;SDS011;57491;42.694;23.314;2023-04-24T02:51:09;10.75;;;5.70;;
70126;SDS011;57491;42.694;23.314;2023-04-24T02:53:37;16.77;;;6.90;;
70126;SDS011;57491;42.694;23.314;2023-04-24T02:56:05;10.13;;;6.10;;
70126;SDS011;57491;42.694;23.314;2023-04-24T02:58:32;9.48;;;6.25;;
70126;SDS011;57491;42.694;23.314;2023-04-24T03:01:01;8.68;;;6.75;;
70126;SDS011;57491;42.694;23.314;2023-04-24T03:05:58;8.88;;;6.70;;
70126;SDS011;57491;42.694;23.314;2023-04-24T03:08:25;11.05;;;7.10;;
70126;SDS011;57491;42.694;23.314;2023-04-24T03:10:58;9.35;;;6.78;;
70126;SDS011;57491;42.694;23.314;2023-04-24T03:13:31;11.30;;;7.05;;
70126;SDS011;57491;42.694;23.314;2023-04-24T03:16:02;12.38;;;5.80;;
70126;SDS011;57491;42.694;23.314;2023-04-24T03:18:29;12.05;;;6.65;;
70126;SDS011;57491;42.694;23.314;2023-04-24T03:21:04;10.13;;;6.47;;
70126;SDS011;57491;42.694;23.314;2023-04-24T03:23:34;13.57;;;6.82;;
70126;SDS011;57491;42.694;23.314;2023-04-24T03:26:04;11.45;;;7.18;;
70126;SDS011;57491;42.694;23.314;2023-04-24T03:30:59;10.38;;;7.70;;
70126;SDS011;57491;42.694;23.314;2023-04-24T03:33:28;14.57;;;7.05;;
70126;SDS011;57491;42.694;23.314;2023-04-24T03:35:55;9.38;;;6.63;;
70126;SDS011;57491;42.694;23.314;2023-04-24T03:38:25;9.38;;;6.32;;
70126;SDS011;57491;42.694;23.314;2023-04-24T03:41:03;12.30;;;6.90;;
70126;SDS011;57491;42.694;23.314;2023-04-24T03:43:30;11.35;;;7.32;;
70126;SDS011;57491;42.694;23.314;2023-04-24T03:45:59;14.23;;;8.18;;
70126;SDS011;57491;42.694;23.314;2023-04-24T03:51:11;15.65;;;8.52;;
70126;SDS011;57491;42.694;23.314;2023-04-24T03:53:43;19.40;;;10.45;;
70126;SDS011;57491;42.694;23.314;2023-04-24T03:56:11;13.82;;;8.60;;
70126;SDS011;57491;42.694;23.314;2023-04-24T04:01:06;16.23;;;8.43;;
70126;SDS011;57491;42.694;23.314;2023-04-24T04:03:33;19.27;;;9.63;;
70126;SDS011;57491;42.694;23.314;2023-04-24T04:06:00;16.23;;;9.05;;
70126;SDS011;57491;42.694;23.314;2023-04-24T04:08:28;16.00;;;9.68;;
70126;SDS011;57491;42.694;23.314;2023-04-24T04:10:57;23.85;;;10.93;;
70126;SDS011;57491;42.694;23.314;2023-04-24T04:13:25;14.05;;;9.15;;
70126;SDS011;57491;42.694;23.314;2023-04-24T04:15:57;7.38;;;5.40;;
70126;SDS011;57491;42.694;23.314;2023-04-24T04:18:27;10.15;;;6.07;;
70126;SDS011;57491;42.694;23.314;2023-04-24T04:21:07;7.68;;;5.68;;
70126;SDS011;57491;42.694;23.314;2023-04-24T04:23:53;10.75;;;5.32;;
70126;SDS011;57491;42.694;23.314;2023-04-24T04:26:23;9.25;;;5.35;;
70126;SDS011;57491;42.694;23.314;2023-04-24T04:28:51;8.98;;;5.47;;
70126;SDS011;57491;42.694;23.314;2023-04-24T04:31:19;13.00;;;5.85;;
70126;SDS011;57491;42.694;23.314;2023-04-24T04:33:48;13.32;;;8.75;;
70126;SDS011;57491;42.694;23.314;2023-04-24T04:36:16;9.43;;;5.20;;
70126;SDS011;57491;42.694;23.314;2023-04-24T04:38:44;7.63;;;5.45;;
70126;SDS011;57491;42.694;23.314;2023-04-24T04:43:40;9.52;;;6.35;;
70126;SDS011;57491;42.694;23.314;2023-04-24T04:46:12;10.18;;;5.55;;
70126;SDS011;57491;42.694;23.314;2023-04-24T04:48:44;10.00;;;5.50;;
70126;SDS011;57491;42.694;23.314;2023-04-24T04:51:14;8.98;;;5.82;;
70126;SDS011;57491;42.694;23.314;2023-04-24T04:53:41;15.15;;;7.00;;
70126;SDS011;57491;42.694;23.314;2023-04-24T04:56:14;7.75;;;5.80;;
70126;SDS011;57491;42.694;23.314;2023-04-24T04:58:43;12.65;;;6.18;;
70126;SDS011;57491;42.694;23.314;2023-04-24T05:01:10;10.98;;;5.65;;
70126;SDS011;57491;42.694;23.314;2023-04-24T05:03:38;10.20;;;6.22;;
70126;SDS011;57491;42.694;23.314;2023-04-24T05:06:06;7.45;;;6.20;;
70126;SDS011;57491;42.694;23.314;2023-04-24T05:08:33;8.23;;;6.30;;
70126;SDS011;57491;42.694;23.314;2023-04-24T05:11:01;12.80;;;6.53;;
70126;SDS011;57491;42.694;23.314;2023-04-24T05:13:28;11.73;;;6.53;;
70126;SDS011;57491;42.694;23.314;2023-04-24T05:15:57;9.82;;;6.70;;
70126;SDS011;57491;42.694;23.314;2023-04-24T05:18:25;10.15;;;6.15;;
70126;SDS011;57491;42.694;23.314;2023-04-24T05:20:53;10.60;;;7.85;;
70126;SDS011;57491;42.694;23.314;2023-04-24T05:23:21;10.77;;;7.63;;
70126;SDS011;57491;42.694;23.314;2023-04-24T05:25:48;12.65;;;8.10;;
70126;SDS011;57491;42.694;23.314;2023-04-24T05:28:16;13.38;;;7.00;;
70126;SDS011;57491;42.694;23.314;2023-04-24T05:30:43;10.43;;;6.38;;
70126;SDS011;57491;42.694;23.314;2023-04-24T05:33:12;11.98;;;7.47;;
70126;SDS011;57491;42.694;23.314;2023-04-24T05:35:40;16.15;;;7.50;;
70126;SDS011;57491;42.694;23.314;2023-04-24T05:38:12;16.40;;;7.75;;
70126;SDS011;57491;42.694;23.314;2023-04-24T05:40:39;11.40;;;6.90;;
70126;SDS011;57491;42.694;23.314;2023-04-24T05:43:07;13.98;;;6.28;;
70126;SDS011;57491;42.694;23.314;2023-04-24T05:45:34;10.18;;;6.85;;
70126;SDS011;57491;42.694;23.314;2023-04-24T05:48:02;10.55;;;7.75;;
70126;SDS011;57491;42.694;23.314;2023-04-24T05:50:31;13.07;;;6.88;;
70126;SDS011;57491;42.694;23.314;2023-04-24T05:52:59;12.38;;;7.70;;
70126;SDS011;57491;42.694;23.314;2023-04-24T05:55:27;16.50;;;7.78;;
70126;SDS011;57491;42.694;23.314;2023-04-24T05:57:55;11.13;;;7.57;;
70126;SDS011;57491;42.694;23.314;2023-04-24T06:00:23;16.25;;;8.63;;
70126;SDS011;57491;42.694;23.314;2023-04-24T06:02:51;15.60;;;9.23;;
70126;SDS011;57491;42.694;23.314;2023-04-24T06:05:19;17.55;;;8.20;;
70126;SDS011;57491;42.694;23.314;2023-04-24T06:07:48;14.27;;;8.15;;
70126;SDS011;57491;42.694;23.314;2023-04-24T06:10:16;12.85;;;8.50;;
70126;SDS011;57491;42.694;23.314;2023-04-24T06:12:43;15.00;;;8.57;;
70126;SDS011;57491;42.694;23.314;2023-04-24T06:15:11;15.90;;;8.15;;
70126;SDS011;57491;42.694;23.314;2023-04-24T06:17:38;14.18;;;7.63;;
70126;SDS011;57491;42.694;23.314;2023-04-24T06:20:06;17.42;;;9.52;;
70126;SDS011;57491;42.694;23.314;2023-04-24T06:22:34;11.30;;;7.68;;
70126;SDS011;57491;42.694;23.314;2023-04-24T06:27:31;14.55;;;8.20;;
70126;SDS011;57491;42.694;23.314;2023-04-24T06:29:58;13.25;;;8.82;;
70126;SDS011;57491;42.694;23.314;2023-04-24T06:32:25;14.80;;;9.43;;
70126;SDS011;57491;42.694;23.314;2023-04-24T06:34:53;14.02;;;8.13;;
70126;SDS011;57491;42.694;23.314;2023-04-24T06:37:21;16.77;;;8.05;;
70126;SDS011;57491;42.694;23.314;2023-04-24T06:39:48;16.95;;;8.80;;
70126;SDS011;57491;42.694;23.314;2023-04-24T06:42:17;13.27;;;8.98;;
70126;SDS011;57491;42.694;23.314;2023-04-24T06:44:46;13.82;;;8.75;;
70126;SDS011;57491;42.694;23.314;2023-04-24T06:47:16;16.08;;;8.60;;
70126;SDS011;57491;42.694;23.314;2023-04-24T06:49:44;18.65;;;9.27;;
70126;SDS011;57491;42.694;23.314;2023-04-24T06:52:11;13.10;;;8.80;;
70126;SDS011;57491;42.694;23.314;2023-04-24T06:54:41;12.05;;;8.00;;
70126;SDS011;57491;42.694;23.314;2023-04-24T06:57:09;14.48;;;8.60;;
70126;SDS011;57491;42.694;23.314;2023-04-24T06:59:37;14.63;;;9.63;;
70126;SDS011;57491;42.694;23.314;2023-04-24T07:02:05;17.15;;;9.70;;
70126;SDS011;57491;42.694;23.314;2023-04-24T07:04:32;18.13;;;9.90;;
70126;SDS011;57491;42.694;23.314;2023-04-24T07:06:59;14.40;;;9.40;;
70126;SDS011;57491;42.694;23.314;2023-04-24T07:09:26;17.55;;;9.00;;
70126;SDS011;57491;42.694;23.314;2023-04-24T07:11:54;19.85;;;10.60;;
70126;SDS011;57491;42.694;23.314;2023-04-24T07:14:23;16.63;;;10.07;;
70126;SDS011;57491;42.694;23.314;2023-04-24T07:16:51;20.13;;;9.65;;
70126;SDS011;57491;42.694;23.314;2023-04-24T07:19:19;18.23;;;10.15;;
70126;SDS011;57491;42.694;23.314;2023-04-24T07:21:46;17.83;;;10.15;;
70126;SDS011;57491;42.694;23.314;2023-04-24T07:24:13;18.15;;;14.38;;
70126;SDS011;57491;42.694;23.314;2023-04-24T07:26:40;19.23;;;11.43;;
70126;SDS011;57491;42.694;23.314;2023-04-24T07:29:08;13.35;;;9.88;;
70126;SDS011;57491;42.694;23.314;2023-04-24T07:31:35;24.90;;;10.18;;
70126;SDS011;57491;42.694;23.314;2023-04-24T07:34:04;10.55;;;8.73;;
70126;SDS011;57491;42.694;23.314;2023-04-24T07:36:31;16.85;;;10.52;;
70126;SDS011;57491;42.694;23.314;2023-04-24T07:38:58;12.80;;;9.68;;
70126;SDS011;57491;42.694;23.314;2023-04-24T07:41:25;17.10;;;10.52;;
70126;SDS011;57491;42.694;23.314;2023-04-24T07:43:53;21.40;;;11.57;;
70126;SDS011;57491;42.694;23.314;2023-04-24T07:46:20;17.75;;;11.75;;
70126;SDS011;57491;42.694;23.314;2023-04-24T07:48:48;9.48;;;8.32;;
70126;SDS011;57491;42.694;23.314;2023-04-24T07:51:17;13.35;;;9.88;;
70126;SDS011;57491;42.694;23.314;2023-04-24T07:53:44;13.73;;;9.38;;
70126;SDS011;57491;42.694;23.314;2023-04-24T07:56:11;14.60;;;9.68;;
70126;SDS011;57491;42.694;23.314;2023-04-24T07:58:38;10.07;;;8.73;;
70126;SDS011;57491;42.694;23.314;2023-04-24T08:01:06;16.50;;;10.02;;
70126;SDS011;57491;42.694;23.314;2023-04-24T08:03:33;10.13;;;7.32;;
70126;SDS011;57491;42.694;23.314;2023-04-24T08:06:01;9.20;;;7.30;;
70126;SDS011;57491;42.694;23.314;2023-04-24T08:08:29;9.77;;;7.03;;
70126;SDS011;57491;42.694;23.314;2023-04-24T08:10:56;8.55;;;7.65;;
70126;SDS011;57491;42.694;23.314;2023-04-24T08:13:24;9.32;;;8.13;;
70126;SDS011;57491;42.694;23.314;2023-04-24T08:15:51;10.02;;;7.88;;
70126;SDS011;57491;42.694;23.314;2023-04-24T08:18:18;9.82;;;7.65;;
70126;SDS011;57491;42.694;23.314;2023-04-24T08:20:45;12.25;;;8.15;;
70126;SDS011;57491;42.694;23.314;2023-04-24T08:23:13;9.63;;;7.90;;
70126;SDS011;57491;42.694;23.314;2023-04-24T08:25:41;8.70;;;7.53;;
70126;SDS011;57491;42.694;23.314;2023-04-24T08:28:08;11.27;;;7.60;;
70126;SDS011;57491;42.694;23.314;2023-04-24T08:35:30;14.43;;;8.15;;
70126;SDS011;57491;42.694;23.314;2023-04-24T08:37:58;10.40;;;7.93;;
70126;SDS011;57491;42.694;23.314;2023-04-24T08:40:27;12.55;;;7.70;;
70126;SDS011;57491;42.694;23.314;2023-04-24T08:42:57;13.10;;;8.75;;
70126;SDS011;57491;42.694;23.314;2023-04-24T08:45:25;10.48;;;8.38;;
70126;SDS011;57491;42.694;23.314;2023-04-24T08:47:53;10.80;;;7.97;;
70126;SDS011;57491;42.694;23.314;2023-04-24T08:52:49;11.23;;;7.13;;
70126;SDS011;57491;42.694;23.314;2023-04-24T08:55:18;9.75;;;6.65;;
70126;SDS011;57491;42.694;23.314;2023-04-24T08:57:49;10.15;;;7.65;;
70126;SDS011;57491;42.694;23.314;2023-04-24T09:00:20;7.85;;;7.03;;
70126;SDS011;57491;42.694;23.314;2023-04-24T09:02:48;8.30;;;7.38;;
70126;SDS011;57491;42.694;23.314;2023-04-24T09:05:16;11.98;;;7.05;;
70126;SDS011;57491;42.694;23.314;2023-04-24T09:07:45;12.48;;;7.72;;
70126;SDS011;57491;42.694;23.314;2023-04-24T09:10:16;9.60;;;6.95;;
70126;SDS011;57491;42.694;23.314;2023-04-24T09:12:43;12.13;;;7.65;;
70126;SDS011;57491;42.694;23.314;2023-04-24T09:15:11;10.30;;;7.53;;
70126;SDS011;57491;42.694;23.314;2023-04-24T09:20:07;11.25;;;8.02;;
70126;SDS011;57491;42.694;23.314;2023-04-24T09:22:36;9.45;;;7.50;;
70126;SDS011;57491;42.694;23.314;2023-04-24T09:25:04;10.60;;;7.03;;
70126;SDS011;57491;42.694;23.314;2023-04-24T09:27:33;9.85;;;6.85;;
70126;SDS011;57491;42.694;23.314;2023-04-24T09:30:01;8.80;;;6.63;;
70126;SDS011;57491;42.694;23.314;2023-04-24T09:32:29;12.30;;;8.15;;
70126;SDS011;57491;42.694;23.314;2023-04-24T09:35:08;11.88;;;7.40;;
70126;SDS011;57491;42.694;23.314;2023-04-24T09:37:37;8.68;;;6.45;;
70126;SDS011;57491;42.694;23.314;2023-04-24T09:40:07;11.60;;;8.25;;
70126;SDS011;57491;42.694;23.314;2023-04-24T09:42:35;9.00;;;6.47;;
70126;SDS011;57491;42.694;23.314;2023-04-24T09:45:02;9.52;;;6.90;;
70126;SDS011;57491;42.694;23.314;2023-04-24T09:47:35;7.93;;;6.03;;
70126;SDS011;57491;42.694;23.314;2023-04-24T09:50:10;7.60;;;6.18;;
70126;SDS011;57491;42.694;23.314;2023-04-24T09:52:44;9.25;;;6.35;;
70126;SDS011;57491;42.694;23.314;2023-04-24T09:55:13;9.40;;;6.38;;
70126;SDS011;57491;42.694;23.314;2023-04-24T09:57:49;7.28;;;6.13;;
70126;SDS011;57491;42.694;23.314;2023-04-24T10:00:18;7.65;;;5.65;;
70126;SDS011;57491;42.694;23.314;2023-04-24T10:02:54;8.48;;;5.65;;
70126;SDS011;57491;42.694;23.314;2023-04-24T10:05:28;7.07;;;5.90;;
70126;SDS011;57491;42.694;23.314;2023-04-24T10:07:59;9.20;;;5.47;;
70126;SDS011;57491;42.694;23.314;2023-04-24T10:10:28;7.07;;;5.15;;
70126;SDS011;57491;42.694;23.314;2023-04-24T10:12:55;9.20;;;6.00;;
70126;SDS011;57491;42.694;23.314;2023-04-24T10:15:23;7.55;;;5.10;;
70126;SDS011;57491;42.694;23.314;2023-04-24T10:17:52;10.65;;;5.80;;
70126;SDS011;57491;42.694;23.314;2023-04-24T10:20:20;8.95;;;5.35;;
70126;SDS011;57491;42.694;23.314;2023-04-24T10:22:51;9.23;;;5.30;;
70126;SDS011;57491;42.694;23.314;2023-04-24T10:25:20;5.55;;;5.00;;
70126;SDS011;57491;42.694;23.314;2023-04-24T10:27:52;7.53;;;5.80;;
70126;SDS011;57491;42.694;23.314;2023-04-24T10:30:22;6.40;;;5.70;;
70126;SDS011;57491;42.694;23.314;2023-04-24T10:32:50;6.15;;;5.20;;
70126;SDS011;57491;42.694;23.314;2023-04-24T10:35:17;9.20;;;4.80;;
70126;SDS011;57491;42.694;23.314;2023-04-24T10:37:50;8.48;;;5.35;;
70126;SDS011;57491;42.694;23.314;2023-04-24T10:40:25;5.63;;;5.00;;
70126;SDS011;57491;42.694;23.314;2023-04-24T10:42:53;7.50;;;5.38;;
70126;SDS011;57491;42.694;23.314;2023-04-24T10:45:21;7.30;;;5.35;;
70126;SDS011;57491;42.694;23.314;2023-04-24T10:47:59;9.18;;;5.53;;
70126;SDS011;57491;42.694;23.314;2023-04-24T10:50:28;5.80;;;5.10;;
70126;SDS011;57491;42.694;23.314;2023-04-24T10:53:06;8.43;;;6.10;;
70126;SDS011;57491;42.694;23.314;2023-04-24T10:55:41;12.82;;;7.30;;
70126;SDS011;57491;42.694;23.314;2023-04-24T10:58:11;6.65;;;5.68;;
70126;SDS011;57491;42.694;23.314;2023-04-24T11:00:38;9.75;;;6.28;;
70126;SDS011;57491;42.694;23.314;2023-04-24T11:03:07;10.35;;;7.13;;
70126;SDS011;57491;42.694;23.314;2023-04-24T11:05:49;13.95;;;7.20;;
70126;SDS011;57491;42.694;23.314;2023-04-24T11:08:24;9.55;;;6.53;;
70126;SDS011;57491;42.694;23.314;2023-04-24T11:11:00;12.32;;;6.93;;
70126;SDS011;57491;42.694;23.314;2023-04-24T11:16:32;6.85;;;6.15;;
70126;SDS011;57491;42.694;23.314;2023-04-24T11:19:01;7.65;;;6.05;;
70126;SDS011;57491;42.694;23.314;2023-04-24T11:21:31;9.43;;;5.90;;
70126;SDS011;57491;42.694;23.314;2023-04-24T11:23:59;12.00;;;5.75;;
70126;SDS011;57491;42.694;23.314;2023-04-24T11:26:54;14.23;;;6.28;;
70126;SDS011;57491;42.694;23.314;2023-04-24T11:29:24;10.93;;;6.30;;
70126;SDS011;57491;42.694;23.314;2023-04-24T11:32:14;9.10;;;6.45;;
70126;SDS011;57491;42.694;23.314;2023-04-24T11:34:45;6.63;;;5.15;;
70126;SDS011;57491;42.694;23.314;2023-04-24T11:37:13;6.15;;;5.38;;
70126;SDS011;57491;42.694;23.314;2023-04-24T11:39:42;9.00;;;6.00;;
70126;SDS011;57491;42.694;23.314;2023-04-24T11:42:09;6.22;;;5.63;;
70126;SDS011;57491;42.694;23.314;2023-04-24T11:44:36;5.72;;;5.05;;
70126;SDS011;57491;42.694;23.314;2023-04-24T11:47:04;6.13;;;4.88;;
70126;SDS011;57491;42.694;23.314;2023-04-24T11:49:32;8.90;;;5.88;;
70126;SDS011;57491;42.694;23.314;2023-04-24T11:51:59;11.10;;;6.28;;
70126;SDS011;57491;42.694;23.314;2023-04-24T11:54:27;8.00;;;5.28;;
70126;SDS011;57491;42.694;23.314;2023-04-24T11:59:24;8.95;;;5.13;;
70126;SDS011;57491;42.694;23.314;2023-04-24T12:01:51;5.68;;;4.75;;
70126;SDS011;57491;42.694;23.314;2023-04-24T12:04:23;4.93;;;3.83;;
70126;SDS011;57491;42.694;23.314;2023-04-24T12:06:59;5.75;;;4.35;;
70126;SDS011;57491;42.694;23.314;2023-04-24T12:09:26;4.45;;;4.05;;
70126;SDS011;57491;42.694;23.314;2023-04-24T12:11:54;5.10;;;4.40;;
70126;SDS011;57491;42.694;23.314;2023-04-24T12:14:23;5.65;;;3.95;;
70126;SDS011;57491;42.694;23.314;2023-04-24T12:16:51;5.20;;;4.05;;
70126;SDS011;57491;42.694;23.314;2023-04-24T12:19:18;7.22;;;4.38;;
70126;SDS011;57491;42.694;23.314;2023-04-24T12:21:58;5.90;;;4.70;;
70126;SDS011;57491;42.694;23.314;2023-04-24T12:24:26;13.20;;;8.05;;
70126;SDS011;57491;42.694;23.314;2023-04-24T12:26:53;6.32;;;5.15;;
70126;SDS011;57491;42.694;23.314;2023-04-24T12:29:20;5.57;;;5.07;;
70126;SDS011;57491;42.694;23.314;2023-04-24T12:31:49;8.10;;;4.55;;
70126;SDS011;57491;42.694;23.314;2023-04-24T12:34:17;8.27;;;4.85;;
70126;SDS011;57491;42.694;23.314;2023-04-24T12:36:45;4.95;;;4.38;;
70126;SDS011;57491;42.694;23.314;2023-04-24T12:39:15;8.68;;;7.68;;
70126;SDS011;57491;42.694;23.314;2023-04-24T12:44:32;4.38;;;3.58;;
70126;SDS011;57491;42.694;23.314;2023-04-24T12:47:01;5.05;;;3.72;;
70126;SDS011;57491;42.694;23.314;2023-04-24T12:49:29;6.18;;;4.35;;
70126;SDS011;57491;42.694;23.314;2023-04-24T12:51:56;6.03;;;4.20;;
70126;SDS011;57491;42.694;23.314;2023-04-24T12:54:23;5.57;;;4.53;;
70126;SDS011;57491;42.694;23.314;2023-04-24T12:56:51;6.40;;;4.75;;
70126;SDS011;57491;42.694;23.314;2023-04-24T12:59:18;4.55;;;4.07;;
70126;SDS011;57491;42.694;23.314;2023-04-24T13:01:45;4.20;;;3.88;;
70126;SDS011;57491;42.694;23.314;2023-04-24T13:04:13;4.50;;;4.10;;
70126;SDS011;57491;42.694;23.314;2023-04-24T13:06:42;7.53;;;5.05;;
70126;SDS011;57491;42.694;23.314;2023-04-24T13:09:09;6.40;;;4.30;;
70126;SDS011;57491;42.694;23.314;2023-04-24T13:11:39;7.72;;;4.80;;
70126;SDS011;57491;42.694;23.314;2023-04-24T13:14:06;7.28;;;5.00;;
70126;SDS011;57491;42.694;23.314;2023-04-24T13:16:33;5.82;;;4.68;;
70126;SDS011;57491;42.694;23.314;2023-04-24T13:21:29;6.70;;;6.07;;
70126;SDS011;57491;42.694;23.314;2023-04-24T13:23:56;6.72;;;5.05;;
70126;SDS011;57491;42.694;23.314;2023-04-24T13:26:23;6.45;;;4.85;;
70126;SDS011;57491;42.694;23.314;2023-04-24T13:28:50;8.25;;;5.05;;
70126;SDS011;57491;42.694;23.314;2023-04-24T13:31:17;7.15;;;5.05;;
70126;SDS011;57491;42.694;23.314;2023-04-24T13:33:45;5.50;;;5.07;;
70126;SDS011;57491;42.694;23.314;2023-04-24T13:36:12;6.32;;;5.00;;
70126;SDS011;57491;42.694;23.314;2023-04-24T13:38:41;5.35;;;4.85;;
70126;SDS011;57491;42.694;23.314;2023-04-24T13:41:08;4.22;;;3.83;;
70126;SDS011;57491;42.694;23.314;2023-04-24T13:43:36;5.22;;;4.72;;
70126;SDS011;57491;42.694;23.314;2023-04-24T13:46:03;6.10;;;4.47;;
70126;SDS011;57491;42.694;23.314;2023-04-24T13:48:30;6.78;;;4.18;;
70126;SDS011;57491;42.694;23.314;2023-04-24T13:50:57;9.15;;;4.80;;
70126;SDS011;57491;42.694;23.314;2023-04-24T13:53:24;6.38;;;4.50;;
70126;SDS011;57491;42.694;23.314;2023-04-24T13:55:53;6.20;;;4.32;;
70126;SDS011;57491;42.694;23.314;2023-04-24T13:58:21;8.05;;;6.32;;
70126;SDS011;57491;42.694;23.314;2023-04-24T14:00:48;5.57;;;4.95;;
70126;SDS011;57491;42.694;23.314;2023-04-24T14:03:15;7.43;;;5.32;;
70126;SDS011;57491;42.694;23.314;2023-04-24T14:08:10;6.32;;;5.30;;
70126;SDS011;57491;42.694;23.314;2023-04-24T14:10:37;8.15;;;5.43;;
70126;SDS011;57491;42.694;23.314;2023-04-24T14:13:05;7.97;;;5.45;;
70126;SDS011;57491;42.694;23.314;2023-04-24T14:15:33;10.05;;;5.30;;
70126;SDS011;57491;42.694;23.314;2023-04-24T14:18:02;10.32;;;6.57;;
70126;SDS011;57491;42.694;23.314;2023-04-24T14:20:30;8.57;;;6.65;;
70126;SDS011;57491;42.694;23.314;2023-04-24T14:25:24;8.57;;;6.32;;
70126;SDS011;57491;42.694;23.314;2023-04-24T14:27:51;7.50;;;5.10;;
70126;SDS011;57491;42.694;23.314;2023-04-24T14:30:20;7.75;;;5.38;;
70126;SDS011;57491;42.694;23.314;2023-04-24T14:32:47;6.57;;;5.18;;
70126;SDS011;57491;42.694;23.314;2023-04-24T14:35:15;6.55;;;4.55;;
70126;SDS011;57491;42.694;23.314;2023-04-24T14:37:42;6.35;;;4.30;;
70126;SDS011;57491;42.694;23.314;2023-04-24T14:40:09;6.10;;;4.82;;
70126;SDS011;57491;42.694;23.314;2023-04-24T14:42:37;6.85;;;4.53;;
70126;SDS011;57491;42.694;23.314;2023-04-24T14:45:04;5.90;;;5.03;;
70126;SDS011;57491;42.694;23.314;2023-04-24T14:47:34;7.07;;;4.35;;
70126;SDS011;57491;42.694;23.314;2023-04-24T14:50:03;6.15;;;5.55;;
70126;SDS011;57491;42.694;23.314;2023-04-24T14:52:30;5.85;;;4.35;;
70126;SDS011;57491;42.694;23.314;2023-04-24T14:54:58;7.15;;;4.97;;
70126;SDS011;57491;42.694;23.314;2023-04-24T14:57:25;6.80;;;4.70;;
70126;SDS011;57491;42.694;23.314;2023-04-24T14:59:52;5.30;;;4.28;;
70126;SDS011;57491;42.694;23.314;2023-04-24T15:02:19;8.60;;;4.68;;
70126;SDS011;57491;42.694;23.314;2023-04-24T15:04:48;5.20;;;4.70;;
70126;SDS011;57491;42.694;23.314;2023-04-24T15:07:15;7.68;;;4.40;;
70126;SDS011;57491;42.694;23.314;2023-04-24T15:09:42;6.78;;;4.30;;
70126;SDS011;57491;42.694;23.314;2023-04-24T15:12:09;7.17;;;4.83;;
70126;SDS011;57491;42.694;23.314;2023-04-24T15:14:37;7.65;;;5.00;;
70126;SDS011;57491;42.694;23.314;2023-04-24T15:17:05;5.90;;;4.60;;
70126;SDS011;57491;42.694;23.314;2023-04-24T15:19:32;8.00;;;5.07;;
70126;SDS011;57491;42.694;23.314;2023-04-24T15:22:01;8.35;;;5.13;;
70126;SDS011;57491;42.694;23.314;2023-04-24T15:24:29;8.65;;;5.05;;